Time;durP1;ratioP1;P1;durP2;ratioP2;P2;SDS_P1;SDS_P2;PMS_P1;PMS_P2;Temp;Humidity;BMP_temperature;BMP_pressure;BME280_temperature;BME280_humidity;BME280_pressure;Samples;Min_cycle;Max_cycle;Signal;HPM_P1;HPM_P2
2021/12/28 00:00:13;;;;;;;;;;;21.30;39.70;;;;;;691069;28;878;-88
2021/12/28 00:00:33;;;;;;;;;;;21.30;39.70;;;;;;691104;28;791;-88
2021/12/28 00:00:54;;;;;;;;;;;21.30;39.60;;;;;;691186;28;905;-88
2021/12/28 00:01:16;;;;;;;;;;;21.20;39.50;;;;;;691574;28;833;-88
2021/12/28 00:01:36;;;;;;;;;;;21.20;39.60;;;;;;691213;28;1063;-89
2021/12/28 00:01:57;;;;;;;;;;;21.30;39.60;;;;;;693670;28;1295;-89
2021/12/28 00:02:17;;;;;;;;;;;21.30;39.50;;;;;;691426;28;1228;-88
2021/12/28 00:02:38;;;;;;;;;;;21.30;39.60;;;;;;691384;28;970;-89
2021/12/28 00:02:59;;;;;;;;;;;21.20;39.50;;;;;;691066;28;866;-89
2021/12/28 00:03:20;;;;;;;;;;;21.30;39.60;;;;;;691223;28;778;-89
2021/12/28 00:03:42;;;;;;;;;;;21.30;39.70;;;;;;691218;28;902;-88
2021/12/28 00:04:04;;;;;;;;;;;21.30;39.60;;;;;;688808;28;1289;-89
2021/12/28 00:04:25;;;;;;;;;;;21.30;39.40;;;;;;690910;28;1292;-90
2021/12/28 00:04:45;;;;;;;;;;;21.30;39.60;;;;;;688507;28;898;-89
2021/12/28 00:05:09;;;;;;;;;;;21.30;39.50;;;;;;688434;28;522;-89
2021/12/28 00:05:29;;;;;;;;;;;21.30;39.40;;;;;;688601;28;826;-88
2021/12/28 00:05:50;;;;;;;;;;;21.30;39.30;;;;;;689352;28;875;-86
2021/12/28 00:06:11;;;;;;;;;;;21.20;39.40;;;;;;690570;28;1291;-88
2021/12/28 00:06:32;;;;;;;;;;;21.20;39.50;;;;;;688528;28;1578;-88
2021/12/28 00:06:52;;;;;;;;;;;21.30;39.60;;;;;;688557;28;866;-88
2021/12/28 00:07:13;;;;;;;;;;;21.20;39.50;;;;;;691169;28;1357;-87
2021/12/28 00:07:33;;;;;;;;;;;21.30;39.70;;;;;;691120;28;1279;-87
2021/12/28 00:07:54;;;;;;;;;;;21.30;39.70;;;;;;690915;28;862;-90
2021/12/28 00:08:16;;;;;;;;;;;21.30;39.60;;;;;;688349;28;815;-88
2021/12/28 00:08:37;;;;;;;;;;;21.30;39.60;;;;;;688525;28;810;-89
2021/12/28 00:08:58;;;;;;;;;;;21.30;39.60;;;;;;690647;28;1089;-88
2021/12/28 00:09:19;;;;;;;;;;;21.30;39.60;;;;;;691033;28;1341;-87
2021/12/28 00:09:39;;;;;;;;;;;21.30;39.60;;;;;;691170;28;1000;-88
2021/12/28 00:10:00;;;;;;;;;;;21.20;39.30;;;;;;689039;28;1141;-88
2021/12/28 00:10:20;;;;;;;;;;;21.20;39.30;;;;;;688098;28;1512;-85
2021/12/28 00:10:41;;;;;;;;;;;21.30;39.60;;;;;;688400;28;807;-88
2021/12/28 00:11:02;;;;;;;;;;;21.30;39.50;;;;;;688094;28;1355;-88
2021/12/28 00:11:23;;;;;;;;;;;21.20;39.40;;;;;;686073;28;1021;-87
2021/12/28 00:11:44;;;;;;;;;;;21.20;39.40;;;;;;685622;28;1508;-87
2021/12/28 00:12:05;;;;;;;;;;;21.30;39.60;;;;;;685606;28;1322;-88
2021/12/28 00:12:29;;;;;;;;;;;21.20;39.60;;;;;;685540;28;1212;-87
2021/12/28 00:12:50;;;;;;;;;;;21.30;39.50;;;;;;686741;28;851;-88
2021/12/28 00:13:10;;;;;;;;;;;21.20;39.50;;;;;;688392;28;826;-88
2021/12/28 00:13:32;;;;;;;;;;;21.20;39.30;;;;;;685547;28;1331;-88
2021/12/28 00:14:00;;;;;;;;;;;21.20;39.40;;;;;;685560;28;1338;-89
2021/12/28 00:14:22;;;;;;;;;;;21.20;39.30;;;;;;684748;28;1324;-85
2021/12/28 00:14:51;;;;;;;;;;;21.20;39.40;;;;;;685710;28;804;-88
2021/12/28 00:15:50;;;;;;;;;;;21.20;39.30;;;;;;687104;28;629;-88
2021/12/28 00:16:29;;;;;;;;;;;21.20;39.50;;;;;;685678;28;1219;-88
2021/12/28 00:18:16;;;;;;;;;;;21.20;39.00;;;;;;693363;28;1910;-88
2021/12/28 00:18:37;;;;;;;;;;;21.20;39.40;;;;;;688973;28;815;-88
2021/12/28 00:18:58;;;;;;;;;;;21.20;39.60;;;;;;689035;28;969;-88
2021/12/28 00:19:19;;;;;;;;;;;21.20;39.50;;;;;;691632;28;1180;-88
2021/12/28 00:19:40;;;;;;;;;;;21.20;39.60;;;;;;691607;28;814;-85
2021/12/28 00:20:00;;;;;;;;;;;21.20;39.50;;;;;;691458;28;902;-88
2021/12/28 00:20:21;;;;;;;;;;;21.20;39.30;;;;;;691532;28;857;-87
2021/12/28 00:20:43;;;;;;;;;;;21.20;39.60;;;;;;691627;28;834;-88
2021/12/28 00:21:04;;;;;;;;;;;21.20;39.60;;;;;;691046;28;1291;-87
2021/12/28 00:21:26;;;;;;;;;;;21.20;39.50;;;;;;688753;28;870;-86
2021/12/28 00:21:46;;;;;;;;;;;21.20;39.50;;;;;;688942;28;822;-87
2021/12/28 00:22:07;;;;;;;;;;;21.20;39.30;;;;;;686077;28;1449;-87
2021/12/28 00:22:27;;;;;;;;;;;21.10;39.30;;;;;;686135;28;854;-87
2021/12/28 00:22:49;;;;;;;;;;;21.20;39.50;;;;;;686585;28;1344;-88
2021/12/28 00:23:13;;;;;;;;;;;21.20;39.60;;;;;;686350;28;1130;-87
2021/12/28 00:23:39;;;;;;;;;;;21.20;39.60;;;;;;686157;28;1338;-87
2021/12/28 00:24:01;;;;;;;;;;;21.20;39.60;;;;;;687800;28;1448;-88
2021/12/28 00:24:22;;;;;;;;;;;21.20;39.60;;;;;;688845;28;850;-89
2021/12/28 00:24:43;;;;;;;;;;;21.20;39.70;;;;;;689016;28;1128;-87
2021/12/28 00:25:05;;;;;;;;;;;21.20;39.50;;;;;;685966;28;1344;-87
2021/12/28 00:25:25;;;;;;;;;;;21.20;39.50;;;;;;686021;28;1232;-86
2021/12/28 00:25:47;;;;;;;;;;;21.20;39.50;;;;;;686282;28;788;-87
2021/12/28 00:26:09;;;;;;;;;;;21.20;39.50;;;;;;686230;28;894;-87
2021/12/28 00:26:29;;;;;;;;;;;21.20;39.50;;;;;;686095;28;811;-87
2021/12/28 00:26:52;;;;;;;;;;;21.20;39.50;;;;;;686995;28;804;-87
2021/12/28 00:27:12;;;;;;;;;;;21.20;39.50;;;;;;688909;28;826;-87
2021/12/28 00:27:33;;;;;;;;;;;21.20;39.50;;;;;;691540;28;1227;-88
2021/12/28 00:27:53;;;;;;;;;;;21.20;39.50;;;;;;691477;28;846;-88
2021/12/28 00:28:14;;;;;;;;;;;21.20;39.60;;;;;;691662;28;776;-87
2021/12/28 00:28:35;;;;;;;;;;;21.20;39.50;;;;;;691475;28;866;-88
2021/12/28 00:28:55;;;;;;;;;;;21.20;39.60;;;;;;691524;28;1327;-88
2021/12/28 00:29:16;;;;;;;;;;;21.20;39.50;;;;;;691301;28;791;-87
2021/12/28 00:29:36;;;;;;;;;;;21.20;39.50;;;;;;688725;28;851;-87
2021/12/28 00:29:57;;;;;;;;;;;21.20;39.40;;;;;;691371;28;1187;-85
2021/12/28 00:30:19;;;;;;;;;;;21.20;39.50;;;;;;691684;28;816;-86
2021/12/28 00:30:39;;;;;;;;;;;21.20;39.50;;;;;;690828;28;1353;-87
2021/12/28 00:31:00;;;;;;;;;;;21.20;39.40;;;;;;688776;28;902;-86
2021/12/28 00:31:23;;;;;;;;;;;21.20;39.40;;;;;;691518;28;1304;-88
2021/12/28 00:31:44;;;;;;;;;;;21.20;39.50;;;;;;690801;28;867;-87
2021/12/28 00:32:04;;;;;;;;;;;21.20;39.70;;;;;;691415;28;1456;-85
2021/12/28 00:32:25;;;;;;;;;;;21.20;39.60;;;;;;691412;28;1176;-86
2021/12/28 00:32:53;;;;;;;;;;;21.20;39.40;;;;;;691539;28;1195;-87
2021/12/28 00:33:13;;;;;;;;;;;21.20;39.50;;;;;;691495;28;1361;-87
2021/12/28 00:33:34;;;;;;;;;;;22.30;40.10;;;;;;688584;28;1306;-88
2021/12/28 00:33:58;;;;;;;;;;;21.20;39.50;;;;;;687557;28;732;-86
2021/12/28 00:34:18;;;;;;;;;;;21.20;39.50;;;;;;683542;29;1367;-86
2021/12/28 00:34:41;;;;;;;;;;;21.20;39.50;;;;;;684969;28;942;-87
2021/12/28 00:35:02;;;;;;;;;;;21.20;39.40;;;;;;683381;29;1248;-86
2021/12/28 00:35:23;;;;;;;;;;;21.20;39.40;;;;;;684392;28;874;-86
2021/12/28 00:35:44;;;;;;;;;;;21.20;39.40;;;;;;686105;28;887;-87
2021/12/28 00:36:05;;;;;;;;;;;21.10;39.40;;;;;;686869;28;843;-87
2021/12/28 00:36:26;;;;;;;;;;;21.20;39.50;;;;;;688686;28;1287;-87
2021/12/28 00:36:47;;;;;;;;;;;21.20;39.30;;;;;;688856;28;842;-87
2021/12/28 00:37:07;;;;;;;;;;;21.20;39.30;;;;;;688783;28;926;-87
2021/12/28 00:37:28;;;;;;;;;;;21.20;39.30;;;;;;688694;28;894;-87
2021/12/28 00:37:49;;;;;;;;;;;21.20;39.20;;;;;;685992;28;1243;-86
2021/12/28 00:38:11;;;;;;;;;;;21.10;39.30;;;;;;689153;28;882;-86
2021/12/28 00:38:33;;;;;;;;;;;21.20;39.40;;;;;;691474;28;1899;-87
2021/12/28 00:38:53;;;;;;;;;;;21.20;39.40;;;;;;691468;28;846;-88
2021/12/28 00:39:14;;;;;;;;;;;21.20;39.30;;;;;;688834;28;1252;-87
2021/12/28 00:39:34;;;;;;;;;;;21.20;39.30;;;;;;689597;28;1212;-87
2021/12/28 00:39:55;;;;;;;;;;;21.20;39.40;;;;;;690782;28;819;-87
2021/12/28 00:40:16;;;;;;;;;;;21.20;39.80;;;;;;688811;28;811;-87
2021/12/28 00:40:37;;;;;;;;;;;21.20;39.50;;;;;;688857;28;752;-87
2021/12/28 00:40:59;;;;;;;;;;;21.20;39.60;;;;;;688809;28;851;-87
2021/12/28 00:41:20;;;;;;;;;;;21.20;39.50;;;;;;688867;28;886;-87
2021/12/28 00:41:41;;;;;;;;;;;21.20;39.60;;;;;;691392;28;1330;-88
2021/12/28 00:42:01;;;;;;;;;;;21.20;39.60;;;;;;691505;28;890;-87
2021/12/28 00:42:23;;;;;;;;;;;21.20;39.60;;;;;;691157;28;1304;-88
2021/12/28 00:42:44;;;;;;;;;;;21.20;39.70;;;;;;691499;28;826;-88
2021/12/28 00:43:06;;;;;;;;;;;21.20;39.60;;;;;;691468;28;811;-88
2021/12/28 00:43:28;;;;;;;;;;;21.20;39.60;;;;;;690854;28;847;-87
2021/12/28 00:43:49;;;;;;;;;;;21.20;39.60;;;;;;688889;28;799;-87
2021/12/28 00:44:10;;;;;;;;;;;20.80;39.40;;;;;;691240;28;1248;-86
2021/12/28 00:44:30;;;;;;;;;;;21.20;40.70;;;;;;691472;28;728;-87
2021/12/28 00:44:51;;;;;;;;;;;21.20;39.60;;;;;;691310;28;1175;-87
2021/12/28 00:45:12;;;;;;;;;;;21.20;39.70;;;;;;691627;28;1219;-82
2021/12/28 00:45:32;;;;;;;;;;;21.20;39.70;;;;;;691676;28;950;-87
2021/12/28 00:45:53;;;;;;;;;;;21.20;39.70;;;;;;691101;28;869;-87
2021/12/28 00:46:13;;;;;;;;;;;21.10;39.70;;;;;;688839;28;1040;-87
2021/12/28 00:46:34;;;;;;;;;;;21.20;39.60;;;;;;688685;28;779;-87
2021/12/28 00:46:54;;;;;;;;;;;21.20;39.60;;;;;;688803;28;902;-87
2021/12/28 00:47:15;;;;;;;;;;;21.20;39.60;;;;;;689083;28;839;-86
2021/12/28 00:47:36;;;;;;;;;;;21.20;39.50;;;;;;689112;28;1028;-88
2021/12/28 00:47:57;;;;;;;;;;;21.20;39.30;;;;;;688982;28;807;-85
2021/12/28 00:48:17;;;;;;;;;;;21.10;39.40;;;;;;691335;28;1304;-87
2021/12/28 00:48:38;;;;;;;;;;;21.10;39.50;;;;;;691433;28;1207;-86
2021/12/28 00:48:59;;;;;;;;;;;21.20;39.50;;;;;;691374;28;1338;-86
2021/12/28 00:49:19;;;;;;;;;;;21.10;39.40;;;;;;691571;28;946;-84
2021/12/28 00:49:41;;;;;;;;;;;21.20;39.40;;;;;;691615;28;794;-86
2021/12/28 00:50:05;;;;;;;;;;;21.20;39.50;;;;;;691019;28;835;-84
2021/12/28 00:50:26;;;;;;;;;;;20.90;39.30;;;;;;690669;28;1262;-84
2021/12/28 00:50:47;;;;;;;;;;;21.10;40.60;;;;;;689790;28;831;-85
2021/12/28 00:51:08;;;;;;;;;;;21.20;39.40;;;;;;692041;28;799;-85
2021/12/28 00:51:28;;;;;;;;;;;21.10;39.40;;;;;;691416;28;843;-86
2021/12/28 00:51:50;;;;;;;;;;;21.10;39.40;;;;;;691528;28;1210;-86
2021/12/28 00:52:10;;;;;;;;;;;21.10;39.30;;;;;;691138;28;775;-87
2021/12/28 00:52:31;;;;;;;;;;;21.20;39.50;;;;;;691344;28;1552;-86
2021/12/28 00:52:51;;;;;;;;;;;21.20;39.40;;;;;;691605;28;827;-88
2021/12/28 00:53:12;;;;;;;;;;;21.20;39.40;;;;;;691388;28;1382;-87
2021/12/28 00:53:33;;;;;;;;;;;21.10;39.40;;;;;;691603;28;1229;-87
2021/12/28 00:53:53;;;;;;;;;;;21.10;39.30;;;;;;691448;28;1072;-87
2021/12/28 00:54:14;;;;;;;;;;;21.20;39.70;;;;;;691347;28;879;-87
2021/12/28 00:54:35;;;;;;;;;;;21.10;39.50;;;;;;688727;28;822;-87
2021/12/28 00:54:56;;;;;;;;;;;21.10;39.30;;;;;;686059;28;929;-87
2021/12/28 00:55:17;;;;;;;;;;;22.30;39.90;;;;;;683802;28;1217;-87
2021/12/28 00:55:38;;;;;;;;;;;21.10;39.30;;;;;;688774;28;1230;-88
2021/12/28 00:55:59;;;;;;;;;;;21.10;39.40;;;;;;688736;28;823;-88
2021/12/28 00:56:19;;;;;;;;;;;21.10;39.40;;;;;;688787;28;519;-88
2021/12/28 00:56:40;;;;;;;;;;;21.10;39.20;;;;;;689214;28;764;-86
2021/12/28 00:57:01;;;;;;;;;;;21.10;39.20;;;;;;691757;28;1310;-87
2021/12/28 00:57:22;;;;;;;;;;;21.20;39.40;;;;;;693770;28;897;-87
2021/12/28 00:57:42;;;;;;;;;;;21.10;39.20;;;;;;688729;28;1353;-87
2021/12/28 00:58:03;;;;;;;;;;;21.10;39.30;;;;;;688740;28;759;-88
2021/12/28 00:58:24;;;;;;;;;;;21.10;39.40;;;;;;688714;28;1967;-88
2021/12/28 00:58:44;;;;;;;;;;;21.10;40.40;;;;;;688741;28;1195;-87
2021/12/28 00:59:05;;;;;;;;;;;21.10;39.30;;;;;;686007;28;1201;-88
2021/12/28 00:59:25;;;;;;;;;;;21.10;39.40;;;;;;685977;28;1287;-87
2021/12/28 00:59:46;;;;;;;;;;;21.10;39.40;;;;;;686051;28;1052;-87
2021/12/28 01:00:10;;;;;;;;;;;21.20;39.40;;;;;;686022;28;796;-86
2021/12/28 01:00:31;;;;;;;;;;;21.10;39.30;;;;;;685951;28;1348;-87
2021/12/28 01:00:52;;;;;;;;;;;21.10;39.30;;;;;;686709;28;941;-86
2021/12/28 01:01:12;;;;;;;;;;;20.10;39.80;;;;;;688895;28;818;-87
2021/12/28 01:01:33;;;;;;;;;;;21.10;39.40;;;;;;688663;28;969;-87
2021/12/28 01:01:54;;;;;;;;;;;21.10;39.50;;;;;;688617;28;1451;-87
2021/12/28 01:02:14;;;;;;;;;;;21.10;39.30;;;;;;689492;28;854;-87
2021/12/28 01:02:35;;;;;;;;;;;21.10;39.30;;;;;;691280;28;1324;-86
2021/12/28 01:02:56;;;;;;;;;;;21.10;39.30;;;;;;691310;28;1158;-88
2021/12/28 01:03:17;;;;;;;;;;;21.10;39.20;;;;;;691532;28;798;-87
2021/12/28 01:03:38;;;;;;;;;;;21.10;39.20;;;;;;691632;28;1269;-86
2021/12/28 01:03:59;;;;;;;;;;;21.10;39.40;;;;;;691557;28;1196;-87
2021/12/28 01:04:19;;;;;;;;;;;21.10;39.30;;;;;;690951;28;1321;-86
2021/12/28 01:04:40;;;;;;;;;;;21.10;39.30;;;;;;690520;28;1444;-87
2021/12/28 01:05:00;;;;;;;;;;;21.10;39.30;;;;;;691259;28;1214;-86
2021/12/28 01:05:21;;;;;;;;;;;21.10;39.30;;;;;;691285;28;1219;-86
2021/12/28 01:05:43;;;;;;;;;;;21.10;39.30;;;;;;691535;28;799;-86
2021/12/28 01:06:05;;;;;;;;;;;21.10;39.20;;;;;;688629;28;1310;-87
2021/12/28 01:06:25;;;;;;;;;;;21.10;39.10;;;;;;688617;28;865;-86
2021/12/28 01:06:46;;;;;;;;;;;21.10;39.10;;;;;;688212;28;889;-86
2021/12/28 01:07:06;;;;;;;;;;;21.10;39.20;;;;;;683662;28;1383;-82
2021/12/28 01:07:27;;;;;;;;;;;21.10;39.20;;;;;;686439;28;878;-87
2021/12/28 01:07:48;;;;;;;;;;;21.10;39.30;;;;;;683887;28;1216;-88
2021/12/28 01:08:10;;;;;;;;;;;21.10;39.30;;;;;;683285;28;1227;-87
2021/12/28 01:08:30;;;;;;;;;;;21.10;39.20;;;;;;683787;29;1232;-86
2021/12/28 01:08:51;;;;;;;;;;;21.10;39.10;;;;;;683492;29;795;-86
2021/12/28 01:09:11;;;;;;;;;;;21.10;39.20;;;;;;685989;28;1208;-85
2021/12/28 01:09:32;;;;;;;;;;;21.10;39.50;;;;;;686560;28;811;-86
2021/12/28 01:09:53;;;;;;;;;;;21.10;39.30;;;;;;686584;28;1195;-85
2021/12/28 01:10:14;;;;;;;;;;;21.10;39.40;;;;;;688858;28;862;-86
2021/12/28 01:10:45;;;;;;;;;;;21.10;39.40;;;;;;688776;28;869;-81
2021/12/28 01:11:06;;;;;;;;;;;21.10;39.30;;;;;;686931;28;795;-87
2021/12/28 01:11:26;;;;;;;;;;;21.10;39.30;;;;;;690402;28;1558;-87
2021/12/28 01:11:47;;;;;;;;;;;21.10;39.30;;;;;;693330;28;981;-86
2021/12/28 01:12:09;;;;;;;;;;;21.10;39.30;;;;;;694162;28;806;-87
2021/12/28 01:12:29;;;;;;;;;;;21.10;39.30;;;;;;691242;28;1276;-86
2021/12/28 01:12:52;;;;;;;;;;;21.10;39.30;;;;;;691557;28;897;-85
2021/12/28 01:13:13;;;;;;;;;;;21.10;39.40;;;;;;690645;28;1351;-87
2021/12/28 01:13:34;;;;;;;;;;;21.10;39.30;;;;;;688603;28;1252;-86
2021/12/28 01:13:55;;;;;;;;;;;21.10;39.30;;;;;;688699;28;921;-86
2021/12/28 01:14:15;;;;;;;;;;;21.10;39.30;;;;;;688479;28;1313;-87
2021/12/28 01:14:37;;;;;;;;;;;21.10;39.30;;;;;;685986;28;1369;-87
2021/12/28 01:14:58;;;;;;;;;;;21.10;39.30;;;;;;686604;28;838;-87
2021/12/28 01:15:19;;;;;;;;;;;21.10;39.30;;;;;;689029;28;886;-86
2021/12/28 01:15:40;;;;;;;;;;;21.10;39.30;;;;;;688701;28;878;-86
2021/12/28 01:16:01;;;;;;;;;;;21.10;39.30;;;;;;685898;28;1116;-87
2021/12/28 01:16:22;;;;;;;;;;;21.10;39.40;;;;;;686564;28;827;-88
2021/12/28 01:16:42;;;;;;;;;;;21.10;39.40;;;;;;688818;28;938;-86
2021/12/28 01:17:03;;;;;;;;;;;21.10;39.30;;;;;;688698;28;815;-86
2021/12/28 01:17:24;;;;;;;;;;;21.10;39.30;;;;;;688523;28;957;-88
2021/12/28 01:17:44;;;;;;;;;;;21.10;39.20;;;;;;686228;28;1192;-87
2021/12/28 01:18:05;;;;;;;;;;;21.10;39.40;;;;;;686698;28;1222;-87
2021/12/28 01:18:26;;;;;;;;;;;21.10;39.30;;;;;;686076;28;1899;-85
2021/12/28 01:18:46;;;;;;;;;;;21.10;39.30;;;;;;686162;28;870;-86
2021/12/28 01:19:08;;;;;;;;;;;21.10;39.20;;;;;;685943;28;1344;-86
2021/12/28 01:19:28;;;;;;;;;;;21.10;39.20;;;;;;686477;28;885;-87
2021/12/28 01:19:49;;;;;;;;;;;21.10;39.20;;;;;;685991;28;1278;-87
2021/12/28 01:20:11;;;;;;;;;;;21.10;39.20;;;;;;685798;28;1214;-83
2021/12/28 01:20:32;;;;;;;;;;;21.10;39.20;;;;;;688588;28;1184;-85
2021/12/28 01:20:53;;;;;;;;;;;21.10;39.40;;;;;;689441;28;893;-86
2021/12/28 01:21:13;;;;;;;;;;;21.10;39.50;;;;;;688728;28;1188;-87
2021/12/28 01:21:34;;;;;;;;;;;21.10;39.20;;;;;;689051;28;1174;-85
2021/12/28 01:21:54;;;;;;;;;;;21.10;39.20;;;;;;691379;28;806;-85
2021/12/28 01:22:15;;;;;;;;;;;21.10;39.20;;;;;;691151;28;826;-87
2021/12/28 01:22:36;;;;;;;;;;;21.10;39.10;;;;;;688665;28;981;-87
2021/12/28 01:22:57;;;;;;;;;;;21.00;39.10;;;;;;685906;28;877;-87
2021/12/28 01:23:18;;;;;;;;;;;21.10;39.10;;;;;;686465;28;878;-87
2021/12/28 01:23:39;;;;;;;;;;;21.10;39.10;;;;;;685930;28;1399;-87
2021/12/28 01:23:59;;;;;;;;;;;21.00;39.00;;;;;;685872;28;863;-89
2021/12/28 01:24:20;;;;;;;;;;;21.00;39.10;;;;;;683255;28;1216;-87
2021/12/28 01:24:41;;;;;;;;;;;21.10;39.20;;;;;;683917;28;831;-86
2021/12/28 01:25:03;;;;;;;;;;;21.00;39.10;;;;;;683284;28;1523;-86
2021/12/28 01:25:23;;;;;;;;;;;21.00;39.10;;;;;;683699;28;1301;-87
2021/12/28 01:25:44;;;;;;;;;;;21.10;39.10;;;;;;683487;29;847;-87
2021/12/28 01:26:04;;;;;;;;;;;21.10;39.00;;;;;;683717;28;1280;-87
2021/12/28 01:26:25;;;;;;;;;;;21.10;39.10;;;;;;686023;28;875;-86
2021/12/28 01:26:46;;;;;;;;;;;21.00;39.10;;;;;;686478;28;795;-87
2021/12/28 01:27:07;;;;;;;;;;;21.00;39.00;;;;;;689203;28;740;-88
2021/12/28 01:27:27;;;;;;;;;;;21.10;39.10;;;;;;691232;28;1498;-87
2021/12/28 01:27:48;;;;;;;;;;;21.10;39.00;;;;;;691517;28;909;-88
2021/12/28 01:28:09;;;;;;;;;;;21.00;39.00;;;;;;691292;28;822;-87
2021/12/28 01:28:29;;;;;;;;;;;21.00;39.00;;;;;;691258;28;778;-87
2021/12/28 01:28:50;;;;;;;;;;;21.00;38.90;;;;;;691551;28;867;-87
2021/12/28 01:29:10;;;;;;;;;;;21.00;39.00;;;;;;691297;28;882;-87
2021/12/28 01:29:32;;;;;;;;;;;21.00;38.90;;;;;;688776;28;956;-87
2021/12/28 01:29:53;;;;;;;;;;;21.00;38.90;;;;;;688969;28;926;-87
2021/12/28 01:30:18;;;;;;;;;;;21.00;39.00;;;;;;688943;28;898;-87
2021/12/28 01:30:41;;;;;;;;;;;21.00;39.00;;;;;;691277;28;1398;-86
2021/12/28 01:31:03;;;;;;;;;;;21.00;39.00;;;;;;691346;28;1492;-86
2021/12/28 01:31:23;;;;;;;;;;;21.10;38.90;;;;;;691396;28;886;-87
2021/12/28 01:31:44;;;;;;;;;;;21.00;39.00;;;;;;691529;28;1026;-88
2021/12/28 01:32:07;;;;;;;;;;;21.00;38.90;;;;;;691368;28;1250;-87
2021/12/28 01:32:28;;;;;;;;;;;21.00;38.90;;;;;;690346;28;826;-88
2021/12/28 01:32:49;;;;;;;;;;;21.10;38.90;;;;;;688800;28;874;-88
2021/12/28 01:33:10;;;;;;;;;;;21.10;38.90;;;;;;688758;28;1313;-83
2021/12/28 01:33:30;;;;;;;;;;;21.00;38.80;;;;;;688728;28;942;-87
2021/12/28 01:33:51;;;;;;;;;;;21.00;38.70;;;;;;686827;28;1190;-86
2021/12/28 01:34:12;;;;;;;;;;;21.00;38.80;;;;;;689152;28;799;-89
2021/12/28 01:34:32;;;;;;;;;;;21.00;38.80;;;;;;688799;28;859;-86
2021/12/28 01:34:53;;;;;;;;;;;21.00;38.70;;;;;;689004;28;838;-86
2021/12/28 01:35:15;;;;;;;;;;;21.00;38.80;;;;;;686530;28;1349;-88
2021/12/28 01:35:35;;;;;;;;;;;21.00;38.80;;;;;;686874;28;879;-87
2021/12/28 01:35:56;;;;;;;;;;;21.00;38.80;;;;;;688875;28;1345;-88
2021/12/28 01:36:17;;;;;;;;;;;21.00;39.00;;;;;;688976;28;1256;-86
2021/12/28 01:36:38;;;;;;;;;;;21.00;38.90;;;;;;688572;28;1334;-88
2021/12/28 01:36:58;;;;;;;;;;;21.00;38.70;;;;;;689029;28;989;-85
2021/12/28 01:37:19;;;;;;;;;;;21.00;38.90;;;;;;686301;28;1215;-87
2021/12/28 01:37:40;;;;;;;;;;;21.00;38.70;;;;;;686164;28;1323;-86
2021/12/28 01:38:01;;;;;;;;;;;20.20;38.30;;;;;;686328;28;899;-87
2021/12/28 01:38:21;;;;;;;;;;;21.00;38.70;;;;;;686339;28;1898;-87
2021/12/28 01:38:42;;;;;;;;;;;21.00;38.70;;;;;;683524;28;1230;-86
2021/12/28 01:39:04;;;;;;;;;;;21.00;38.70;;;;;;683885;28;1400;-87
2021/12/28 01:39:24;;;;;;;;;;;21.00;38.70;;;;;;686860;28;878;-86
2021/12/28 01:39:45;;;;;;;;;;;21.00;39.00;;;;;;688847;28;1232;-86
2021/12/28 01:40:07;;;;;;;;;;;21.00;38.70;;;;;;688938;28;1041;-87
2021/12/28 01:40:28;;;;;;;;;;;21.00;38.70;;;;;;689593;28;905;-86
2021/12/28 01:40:49;;;;;;;;;;;21.00;38.70;;;;;;691610;28;732;-86
2021/12/28 01:41:10;;;;;;;;;;;21.00;38.80;;;;;;691754;28;834;-86
2021/12/28 01:41:31;;;;;;;;;;;21.00;38.60;;;;;;691325;28;1365;-85
2021/12/28 01:41:52;;;;;;;;;;;21.00;38.70;;;;;;691493;28;902;-87
2021/12/28 01:42:12;;;;;;;;;;;21.00;38.70;;;;;;691473;28;1376;-86
2021/12/28 01:42:33;;;;;;;;;;;21.00;38.70;;;;;;691486;28;827;-86
2021/12/28 01:43:02;;;;;;;;;;;21.00;38.70;;;;;;691376;28;819;-85
2021/12/28 01:43:23;;;;;;;;;;;21.00;38.70;;;;;;689920;28;1320;-87
2021/12/28 01:43:44;;;;;;;;;;;21.00;38.70;;;;;;691369;28;1380;-86
2021/12/28 01:44:09;;;;;;;;;;;21.00;38.70;;;;;;689823;28;791;-87
2021/12/28 01:44:29;;;;;;;;;;;21.00;38.70;;;;;;688648;28;830;-87
2021/12/28 01:44:50;;;;;;;;;;;21.80;39.00;;;;;;688601;28;818;-86
2021/12/28 01:45:11;;;;;;;;;;;20.90;38.60;;;;;;691327;28;1208;-87
2021/12/28 01:45:36;;;;;;;;;;;21.00;38.80;;;;;;690416;28;819;-87
2021/12/28 01:46:00;;;;;;;;;;;21.00;38.70;;;;;;688544;28;961;-85
2021/12/28 01:46:21;;;;;;;;;;;21.00;38.60;;;;;;688565;28;882;-87
2021/12/28 01:46:41;;;;;;;;;;;21.00;38.60;;;;;;691318;28;1186;-85
2021/12/28 01:47:03;;;;;;;;;;;21.00;38.80;;;;;;689807;28;787;-87
2021/12/28 01:47:23;;;;;;;;;;;20.90;38.60;;;;;;691201;28;948;-87
2021/12/28 01:47:44;;;;;;;;;;;21.00;38.70;;;;;;691286;28;1235;-86
2021/12/28 01:48:06;;;;;;;;;;;21.00;38.60;;;;;;691354;28;1164;-87
2021/12/28 01:48:34;;;;;;;;;;;20.90;38.60;;;;;;690874;28;843;-86
2021/12/28 01:48:54;;;;;;;;;;;21.00;38.60;;;;;;688464;28;866;-87
2021/12/28 01:49:15;;;;;;;;;;;20.90;38.60;;;;;;691357;28;1282;-86
2021/12/28 01:49:35;;;;;;;;;;;20.90;38.80;;;;;;688475;28;1171;-86
2021/12/28 01:49:56;;;;;;;;;;;21.00;38.60;;;;;;690000;28;819;-86
2021/12/28 01:50:16;;;;;;;;;;;21.00;38.70;;;;;;688610;28;1159;-87
2021/12/28 01:50:37;;;;;;;;;;;20.90;38.60;;;;;;688539;28;1295;-87
2021/12/28 01:50:59;;;;;;;;;;;20.90;38.70;;;;;;688238;28;1321;-87
2021/12/28 01:51:21;;;;;;;;;;;21.00;38.80;;;;;;686427;28;1036;-88
2021/12/28 01:51:42;;;;;;;;;;;20.90;38.70;;;;;;688624;28;1282;-88
2021/12/28 01:52:02;;;;;;;;;;;20.90;38.70;;;;;;688616;28;823;-87
2021/12/28 01:52:23;;;;;;;;;;;20.90;38.60;;;;;;688519;28;1048;-85
2021/12/28 01:52:44;;;;;;;;;;;20.90;38.60;;;;;;685923;28;1181;-87
2021/12/28 01:53:05;;;;;;;;;;;21.00;38.90;;;;;;685921;28;969;-87
2021/12/28 01:53:26;;;;;;;;;;;21.00;38.70;;;;;;686295;28;914;-87
2021/12/28 01:53:47;;;;;;;;;;;21.00;38.60;;;;;;688620;28;903;-87
2021/12/28 01:54:08;;;;;;;;;;;20.90;38.50;;;;;;688575;28;819;-86
2021/12/28 01:54:28;;;;;;;;;;;20.90;39.00;;;;;;691715;28;1275;-87
2021/12/28 01:54:49;;;;;;;;;;;20.90;38.90;;;;;;694129;28;862;-87
2021/12/28 01:55:10;;;;;;;;;;;21.00;38.60;;;;;;693932;28;905;-86
2021/12/28 01:55:31;;;;;;;;;;;21.20;38.70;;;;;;691245;28;1317;-86
2021/12/28 01:55:53;;;;;;;;;;;20.90;38.60;;;;;;691358;28;866;-88
2021/12/28 01:56:16;;;;;;;;;;;20.90;38.70;;;;;;690725;28;1125;-87
2021/12/28 01:56:40;;;;;;;;;;;20.90;38.60;;;;;;688485;28;1203;-88
2021/12/28 01:57:00;;;;;;;;;;;20.90;38.50;;;;;;688544;28;858;-87
2021/12/28 01:57:21;;;;;;;;;;;20.90;38.70;;;;;;688543;28;831;-87
2021/12/28 01:57:43;;;;;;;;;;;20.90;39.90;;;;;;685954;28;1109;-88
2021/12/28 01:58:04;;;;;;;;;;;20.90;38.80;;;;;;685836;28;1299;-88
2021/12/28 01:58:25;;;;;;;;;;;20.90;38.70;;;;;;685756;28;1966;-88
2021/12/28 01:58:45;;;;;;;;;;;21.00;38.70;;;;;;685845;28;1351;-88
2021/12/28 01:59:07;;;;;;;;;;;20.90;38.70;;;;;;685881;28;945;-88
2021/12/28 01:59:27;;;;;;;;;;;20.90;38.60;;;;;;685913;28;771;-88
2021/12/28 01:59:51;;;;;;;;;;;20.90;38.80;;;;;;685795;28;1486;-88
2021/12/28 02:00:12;;;;;;;;;;;20.90;38.70;;;;;;685969;28;890;-89
2021/12/28 02:00:33;;;;;;;;;;;20.90;38.50;;;;;;685777;28;1192;-88
2021/12/28 02:00:55;;;;;;;;;;;20.90;38.50;;;;;;683161;28;1446;-89
2021/12/28 02:01:16;;;;;;;;;;;20.90;38.70;;;;;;683357;29;792;-89
2021/12/28 02:01:36;;;;;;;;;;;20.90;38.60;;;;;;683142;28;1273;-86
2021/12/28 02:01:57;;;;;;;;;;;20.90;38.60;;;;;;683063;28;1216;-88
2021/12/28 02:02:18;;;;;;;;;;;20.90;38.60;;;;;;683281;28;1196;-88
2021/12/28 02:02:38;;;;;;;;;;;20.90;38.60;;;;;;683827;28;804;-89
2021/12/28 02:02:59;;;;;;;;;;;20.90;38.40;;;;;;683108;29;1479;-88
2021/12/28 02:03:21;;;;;;;;;;;20.90;38.50;;;;;;680533;28;1249;-87
2021/12/28 02:03:43;;;;;;;;;;;20.90;39.50;;;;;;681193;29;816;-87
2021/12/28 02:04:20;;;;;;;;;;;20.90;38.10;;;;;;681144;29;1488;-87
2021/12/28 02:04:40;;;;;;;;;;;20.90;38.30;;;;;;686042;28;1273;-87
2021/12/28 02:05:01;;;;;;;;;;;20.90;38.60;;;;;;688463;28;1285;-86
2021/12/28 02:05:24;;;;;;;;;;;20.90;38.50;;;;;;688499;28;1242;-88
2021/12/28 02:05:45;;;;;;;;;;;20.90;38.50;;;;;;688570;28;1311;-89
2021/12/28 02:06:06;;;;;;;;;;;20.90;38.40;;;;;;688618;28;926;-89
2021/12/28 02:06:27;;;;;;;;;;;20.90;38.40;;;;;;687439;28;1464;-89
2021/12/28 02:06:48;;;;;;;;;;;20.90;38.30;;;;;;685979;28;835;-89
2021/12/28 02:07:09;;;;;;;;;;;20.90;38.50;;;;;;686761;28;816;-89
2021/12/28 02:07:29;;;;;;;;;;;20.90;38.50;;;;;;689020;28;854;-86
2021/12/28 02:07:50;;;;;;;;;;;20.90;38.50;;;;;;690615;28;1370;-89
2021/12/28 02:08:12;;;;;;;;;;;20.90;38.30;;;;;;691045;28;866;-88
2021/12/28 02:08:34;;;;;;;;;;;20.90;38.50;;;;;;691632;28;1100;-89
2021/12/28 02:08:55;;;;;;;;;;;20.90;38.70;;;;;;691368;28;977;-89
2021/12/28 02:09:16;;;;;;;;;;;20.90;38.70;;;;;;691300;28;1318;-89
2021/12/28 02:09:37;;;;;;;;;;;20.90;38.70;;;;;;691240;28;1257;-89
2021/12/28 02:09:57;;;;;;;;;;;20.90;38.60;;;;;;691180;28;1282;-89
2021/12/28 02:10:18;;;;;;;;;;;20.90;38.50;;;;;;690808;28;803;-88
2021/12/28 02:10:39;;;;;;;;;;;20.90;38.40;;;;;;688546;28;830;-89